Time;durP1;ratioP1;P1;durP2;ratioP2;P2;SDS_P1;SDS_P2;PMS_P1;PMS_P2;Temp;Humidity;BMP_temperature;BMP_pressure;BME280_temperature;BME280_humidity;BME280_pressure;Samples;Min_cycle;Max_cycle;Signal;HPM_P1;HPM_P2
2023/04/28 00:04:05;;;;;;;3.90;3.20;;;;;;;14.09;63.82;98965.37;7380863;39;20265;31
2023/04/28 00:09:23;;;;;;;5.84;3.16;;;;;;;14.04;65.53;98967.88;7421128;39;20255;31
2023/04/28 00:14:54;;;;;;;3.80;3.40;;;;;;;13.91;66.22;98955.00;7423327;39;20250;31
2023/04/28 00:20:30;;;;;;;4.90;3.77;;;;;;;13.82;66.39;98937.22;7421830;39;20298;31
2023/04/28 00:26:03;;;;;;;6.80;3.70;;;;;;;13.89;66.18;98940.84;7415861;39;20297;31
2023/04/28 00:31:20;;;;;;;5.90;4.00;;;;;;;13.83;66.26;98919.91;7455647;39;20261;31
2023/04/28 00:36:56;;;;;;;6.00;4.20;;;;;;;13.80;68.71;98915.75;7438898;39;20242;31
2023/04/28 00:42:31;;;;;;;4.70;4.30;;;;;;;13.72;68.54;98905.03;7452883;39;20231;31
2023/04/28 00:47:48;;;;;;;4.70;4.30;;;;;;;13.72;68.16;98894.22;7428132;39;20270;31
2023/04/28 00:58:26;;;;;;;4.90;4.40;;;;;;;13.65;68.80;98904.13;7415342;39;20245;31
2023/04/28 01:09:02;;;;;;;6.65;5.00;;;;;;;13.51;69.59;98889.59;7433703;39;21084;31
2023/04/28 01:19:39;;;;;;;6.35;4.70;;;;;;;13.63;69.49;98879.13;7508974;38;20264;31
2023/04/28 01:25:09;;;;;;;4.65;3.95;;;;;;;13.65;68.98;98882.47;7486580;38;21320;31
2023/04/28 01:30:41;;;;;;;6.90;4.20;;;;;;;13.66;68.72;98894.13;7491953;39;21734;31
2023/04/28 01:36:01;;;;;;;6.18;4.66;;;;;;;13.48;69.74;98906.25;7465773;39;21202;31
2023/04/28 01:41:34;;;;;;;5.55;4.60;;;;;;;13.51;70.69;98884.19;7467556;39;21736;31
2023/04/28 01:46:52;;;;;;;6.50;5.00;;;;;;;13.59;69.84;98885.12;7245337;39;20385;31
2023/04/28 01:52:28;;;;;;;5.60;4.90;;;;;;;13.57;70.73;98881.75;7458156;39;20263;31
2023/04/28 01:58:04;;;;;;;5.45;4.65;;;;;;;13.42;71.76;98893.50;7402859;39;20363;31
2023/04/28 02:03:25;;;;;;;7.20;4.98;;;;;;;13.45;71.69;98887.69;7462941;39;20377;31
2023/04/28 02:08:45;;;;;;;9.50;4.88;;;;;;;13.34;71.70;98888.19;7461158;39;20363;31
2023/04/28 02:14:21;;;;;;;5.05;4.55;;;;;;;13.40;72.22;98900.97;7473565;38;20273;31
2023/04/28 02:19:38;;;;;;;4.70;4.30;;;;;;;13.46;71.35;98892.09;7486667;38;20375;31
2023/04/28 02:24:55;;;;;;;6.40;4.95;;;;;;;13.40;72.77;98879.31;7488928;38;21717;31
2023/04/28 02:30:27;;;;;;;7.33;4.87;;;;;;;13.29;73.40;98885.25;7461590;39;20388;31
2023/04/28 02:35:44;;;;;;;6.07;5.20;;;;;;;13.26;73.33;98874.78;7458386;39;20273;31
2023/04/28 02:46:22;;;;;;;6.50;4.90;;;;;;;13.25;73.55;98864.16;7460498;39;20332;31
2023/04/28 02:56:46;;;;;;;9.37;4.70;;;;;;;13.27;73.57;98851.25;7472938;38;21567;31
2023/04/28 03:02:21;;;;;;;6.80;5.00;;;;;;;13.20;73.36;98834.97;7490232;38;20280;31
2023/04/28 03:07:52;;;;;;;5.83;4.97;;;;;;;13.26;73.43;98844.16;7493831;38;20931;31
2023/04/28 03:13:12;;;;;;;4.85;4.10;;;;;;;13.26;73.70;98833.34;7461477;39;20253;31
2023/04/28 03:18:43;;;;;;;28.57;19.90;;;;;;;13.29;74.08;98833.81;7398337;39;20350;31
2023/04/28 03:24:00;;;;;;;15.20;10.47;;;;;;;13.29;73.59;98839.22;7334905;39;20260;31
2023/04/28 03:29:23;;;;;;;13.32;7.50;;;;;;;13.29;73.59;98839.22;7358345;39;20273;31
2023/04/28 03:34:55;;;;;;;6.67;5.97;;;;;;;13.27;73.82;98826.91;7365153;39;20314;31
2023/04/28 03:40:27;;;;;;;8.35;5.80;;;;;;;13.27;74.00;98816.06;7387898;39;20234;31
2023/04/28 03:45:48;;;;;;;7.50;4.90;;;;;;;13.31;73.66;98811.94;7484015;39;20241;31
2023/04/28 03:51:20;;;;;;;9.05;5.15;;;;;;;13.36;73.43;98806.78;7484820;39;20347;31
2023/04/28 03:56:52;;;;;;;6.43;5.37;;;;;;;13.40;73.27;98808.91;7458976;39;20333;31
2023/04/28 04:02:12;;;;;;;7.70;5.30;;;;;;;13.38;73.48;98800.12;7450792;39;21058;31
2023/04/28 04:07:45;;;;;;;7.93;5.63;;;;;;;13.32;74.31;98800.09;7487444;38;20229;31
2023/04/28 04:13:06;;;;;;;6.85;5.00;;;;;;;13.33;74.01;98802.63;7470637;39;20241;31
2023/04/28 04:18:23;;;;;;;6.73;4.60;;;;;;;13.22;73.78;98794.16;7492230;38;21281;31
2023/04/28 04:23:57;;;;;;;5.45;4.15;;;;;;;13.16;74.05;98784.97;7441648;39;20254;31
2023/04/28 04:29:13;;;;;;;6.95;4.70;;;;;;;13.11;74.52;98795.53;7438644;39;20472;31
2023/04/28 04:39:51;;;;;;;6.93;5.32;;;;;;;13.22;75.03;98783.31;7377402;39;21209;31
2023/04/28 04:50:27;;;;;;;6.60;4.77;;;;;;;13.26;74.45;98787.31;7408457;39;21304;31
2023/04/28 05:01:04;;;;;;;9.60;6.20;;;;;;;13.06;75.63;98792.53;7458760;39;21465;31
2023/04/28 05:06:40;;;;;;;8.07;5.63;;;;;;;13.04;76.29;98789.16;7442358;39;20388;31
2023/04/28 05:17:17;;;;;;;9.20;6.33;;;;;;;12.89;78.54;98794.63;7440677;38;21138;31
2023/04/28 05:27:54;;;;;;;11.07;6.47;;;;;;;12.89;78.79;98777.56;7512908;38;20253;31
2023/04/28 05:33:30;;;;;;;7.47;6.10;;;;;;;12.99;78.19;98778.06;7424675;39;20253;31
2023/04/28 05:39:02;;;;;;;7.10;5.75;;;;;;;13.06;77.92;98770.88;7418360;39;20246;31
2023/04/28 05:44:34;;;;;;;8.47;5.67;;;;;;;13.12;78.05;98778.22;7376388;39;20408;31
2023/04/28 05:50:07;;;;;;;10.37;6.53;;;;;;;13.03;80.35;98774.78;7325912;39;20240;31
2023/04/28 05:55:22;;;;;;;9.40;7.00;;;;;;;13.05;80.15;98770.03;7374629;39;20266;31
2023/04/28 06:00:39;;;;;;;9.10;7.30;;;;;;;13.06;81.31;98768.16;7420031;39;21265;31
2023/04/28 06:06:11;;;;;;;7.63;6.63;;;;;;;13.13;81.65;98760.13;7401893;39;20235;31
2023/04/28 06:11:43;;;;;;;9.40;7.17;;;;;;;13.17;81.86;98772.25;7444931;39;20310;31
2023/04/28 06:17:01;;;;;;;12.80;10.73;;;;;;;13.30;81.67;98770.50;7416282;39;20243;31
2023/04/28 06:22:37;;;;;;;21.50;16.20;;;;;;;13.34;81.54;98765.56;7419445;39;20258;31
2023/04/28 06:28:13;;;;;;;11.47;10.10;;;;;;;13.43;80.68;98778.75;7435423;39;21229;31
2023/04/28 06:33:30;;;;;;;7.77;6.73;;;;;;;13.33;81.27;98786.38;7400659;39;20652;31
2023/04/28 06:39:05;;;;;;;11.40;6.90;;;;;;;13.24;82.10;98789.41;7351966;39;20347;31
2023/04/28 06:44:26;;;;;;;7.47;6.67;;;;;;;13.26;81.29;98777.34;7367357;39;20494;31
2023/04/28 06:49:48;;;;;;;7.57;6.77;;;;;;;13.27;81.43;98791.72;7370724;39;20242;31
2023/04/28 06:55:19;;;;;;;6.78;6.10;;;;;;;13.32;81.81;98797.37;7405544;39;20240;31
2023/04/28 07:00:37;;;;;;;7.50;6.10;;;;;;;13.38;81.67;98783.91;7417814;39;20281;31
2023/04/28 07:05:54;;;;;;;7.67;6.87;;;;;;;13.39;81.76;98774.75;7355323;39;20247;31
2023/04/28 07:11:26;;;;;;;8.20;7.40;;;;;;;13.38;82.96;98778.47;7358576;39;20247;31
2023/04/28 07:16:58;;;;;;;8.45;7.15;;;;;;;13.42;82.82;98781.66;7376482;39;20229;31
2023/04/28 07:22:15;;;;;;;8.67;7.37;;;;;;;13.52;82.62;98788.41;7343632;39;20336;31
2023/04/28 07:27:53;;;;;;;6.73;4.53;;;;;;;13.52;83.64;98788.41;7435441;38;20228;31
2023/04/28 07:33:24;;;;;;;4.77;4.27;;;;;;;13.64;83.78;98798.72;7516253;38;21286;31
2023/04/28 07:38:59;;;;;;;3.40;3.10;;;;;;;13.65;85.62;98797.66;7513070;38;21907;31
2023/04/28 07:44:32;;;;;;;3.50;3.10;;;;;;;13.65;84.94;98801.22;7440568;39;20258;31
2023/04/28 07:49:49;;;;;;;4.83;3.90;;;;;;;13.77;84.49;98804.25;7397168;39;20465;31
2023/04/28 07:55:24;;;;;;;5.47;4.90;;;;;;;13.79;84.14;98804.87;7376878;39;20254;31
2023/04/28 08:05:59;;;;;;;6.32;4.28;;;;;;;13.88;84.24;98800.97;7386285;39;20265;31
2023/04/28 08:16:21;;;;;;;3.80;3.40;;;;;;;13.92;84.33;98808.50;7439050;39;21130;31
2023/04/28 08:26:58;;;;;;;4.16;3.76;;;;;;;13.97;86.24;98806.06;7421244;39;20270;31
2023/04/28 08:32:33;;;;;;;4.37;3.53;;;;;;;13.94;87.00;98798.31;7443088;39;20305;31
2023/04/28 08:38:06;;;;;;;4.07;3.77;;;;;;;14.04;86.66;98800.66;7376434;39;20283;31
2023/04/28 08:48:58;;;;;;;5.22;3.97;;;;;;;14.23;87.20;98791.81;7461727;39;20266;31
2023/04/28 08:54:30;;;;;;;6.10;4.30;;;;;;;14.25;88.21;98795.19;7233028;39;21458;31
2023/04/28 09:00:05;;;;;;;5.70;5.10;;;;;;;14.39;88.05;98798.84;7484074;38;20241;31
2023/04/28 09:05:38;;;;;;;5.40;4.90;;;;;;;14.45;89.15;98798.03;7438007;39;20429;31
2023/04/28 09:11:13;;;;;;;7.65;4.90;;;;;;;14.47;91.17;98789.69;7422116;39;20243;31
2023/04/28 09:16:54;;;;;;;3.40;3.10;;;;;;;14.59;92.76;98779.94;7438660;39;21217;31
2023/04/28 09:22:27;;;;;;;2.90;2.70;;;;;;;14.86;92.56;98792.56;7426930;39;20275;31
2023/04/28 09:27:59;;;;;;;3.17;2.87;;;;;;;15.11;92.93;98787.41;7420555;39;20239;31
2023/04/28 09:33:31;;;;;;;2.97;2.33;;;;;;;15.28;93.25;98789.53;7397681;39;20240;31
2023/04/28 09:39:04;;;;;;;3.20;2.90;;;;;;;15.44;92.86;98790.19;7428338;39;20242;31
2023/04/28 09:44:22;;;;;;;2.70;2.40;;;;;;;15.68;92.91;98795.03;7441589;39;20254;31
2023/04/28 09:49:58;;;;;;;2.10;1.90;;;;;;;15.85;92.40;98795.41;7476661;38;20285;31
2023/04/28 10:00:36;;;;;;;3.57;2.60;;;;;;;15.90;92.78;98793.75;7422909;39;20282;31
2023/04/28 10:06:07;;;;;;;1.87;1.77;;;;;;;15.84;93.47;98796.50;7438259;39;20257;31
2023/04/28 10:11:42;;;;;;;2.00;1.80;;;;;;;15.76;93.88;98802.94;7437016;39;20464;31
2023/04/28 10:17:30;;;;;;;1.75;1.60;;;;;;;15.67;94.13;98810.47;7395916;39;20254;31
2023/04/28 10:23:04;;;;;;;2.10;1.40;;;;;;;15.69;94.02;98822.00;7394109;39;20267;31
2023/04/28 10:33:44;;;;;;;1.40;1.30;;;;;;;15.79;94.73;98827.03;7410719;39;20834;31
2023/04/28 10:39:22;;;;;;;2.03;1.50;;;;;;;15.83;93.58;98803.81;7374842;39;20351;31
2023/04/28 10:44:55;;;;;;;1.30;1.20;;;;;;;15.94;94.37;98805.03;7334964;39;20332;31
2023/04/28 10:50:26;;;;;;;1.23;1.13;;;;;;;16.08;93.35;98802.09;7322054;39;20304;31
2023/04/28 10:55:43;;;;;;;2.43;2.07;;;;;;;16.22;92.89;98792.03;7357408;39;20279;31
2023/04/28 11:01:41;;;;;;;5.43;3.73;;;;;;;16.38;94.93;98802.44;7333046;39;20332;31
2023/04/28 11:07:26;;;;;;;3.43;1.97;;;;;;;16.35;94.91;98786.56;7361020;39;20279;31
2023/04/28 11:13:20;;;;;;;1.40;1.30;;;;;;;16.28;95.34;98793.88;7340997;39;20244;31
2023/04/28 11:18:53;;;;;;;1.40;1.30;;;;;;;16.37;95.09;98775.44;7416687;39;20238;31
2023/04/28 11:24:29;;;;;;;1.36;1.26;;;;;;;16.42;95.42;98770.22;7427920;39;20333;31
2023/04/28 11:30:05;;;;;;;1.57;1.20;;;;;;;16.50;95.44;98780.84;7397834;39;20254;31
2023/04/28 11:35:22;;;;;;;1.40;1.20;;;;;;;16.64;95.62;98764.28;7441048;39;20255;31
2023/04/28 11:40:55;;;;;;;1.90;1.40;;;;;;;16.80;94.12;98756.69;7422296;39;20360;31
2023/04/28 11:46:30;;;;;;;1.40;1.30;;;;;;;16.80;93.80;98762.16;7439085;39;20344;31
2023/04/28 11:52:02;;;;;;;1.75;1.40;;;;;;;16.81;95.02;98766.50;7467050;39;20273;31
2023/04/28 11:57:39;;;;;;;4.07;1.40;;;;;;;16.83;94.52;98761.69;7452119;39;20354;31
2023/04/28 12:02:57;;;;;;;1.30;1.20;;;;;;;16.94;93.07;98780.91;7419697;39;20334;31
2023/04/28 12:08:13;;;;;;;1.57;1.47;;;;;;;16.94;93.74;98769.16;7397508;39;20335;31
2023/04/28 12:13:43;;;;;;;1.80;1.40;;;;;;;16.87;93.98;98760.22;7355100;39;20507;31
2023/04/28 12:19:19;;;;;;;1.60;1.50;;;;;;;17.04;93.48;98784.00;7356167;39;20408;31
2023/04/28 12:24:51;;;;;;;1.43;1.27;;;;;;;17.10;93.40;98772.25;7382483;39;20375;31
2023/04/28 12:30:42;;;;;;;3.30;1.20;;;;;;;17.24;94.00;98773.00;7380615;39;20415;31
2023/04/28 12:36:15;;;;;;;2.57;1.20;;;;;;;17.52;92.65;98772.56;7378473;39;20254;31
2023/04/28 12:41:43;;;;;;;1.60;1.20;;;;;;;17.80;90.33;98764.81;7354679;39;20244;31
2023/04/28 12:47:18;;;;;;;1.77;1.10;;;;;;;17.83;88.57;98761.63;7397857;39;20346;31
2023/04/28 12:52:36;;;;;;;1.17;1.07;;;;;;;18.19;88.16;98751.84;7462759;39;20278;31
2023/04/28 12:57:52;;;;;;;1.75;1.10;;;;;;;18.36;87.58;98752.91;7477384;39;20256;31
2023/04/28 13:03:26;;;;;;;1.20;1.10;;;;;;;18.52;86.02;98757.75;7396895;39;20246;31
2023/04/28 13:08:43;;;;;;;1.53;1.10;;;;;;;18.86;85.84;98762.62;7397048;39;20243;31
2023/04/28 13:14:15;;;;;;;0.90;0.90;;;;;;;18.80;83.00;98758.06;7396892;39;20242;31
2023/04/28 13:19:50;;;;;;;2.47;1.03;;;;;;;18.81;83.10;98745.25;7398861;39;20302;31
2023/04/28 13:25:09;;;;;;;1.20;1.10;;;;;;;19.01;81.75;98745.78;7410628;39;20264;31
2023/04/28 13:30:27;;;;;;;1.73;1.10;;;;;;;18.80;82.87;98741.69;7443387;39;20255;31
2023/04/28 13:36:00;;;;;;;1.20;1.10;;;;;;;18.73;81.73;98719.09;7440458;39;20254;31
2023/04/28 13:41:35;;;;;;;1.80;1.00;;;;;;;18.89;81.27;98723.91;7376048;39;20256;31
2023/04/28 13:47:08;;;;;;;3.70;1.07;;;;;;;18.79;81.53;98720.87;7405283;39;20262;31
2023/04/28 13:52:43;;;;;;;1.20;1.10;;;;;;;18.53;83.64;98725.84;7427564;39;20282;31
2023/04/28 13:58:15;;;;;;;2.13;0.97;;;;;;;18.34;84.71;98722.31;7377618;39;20426;31
2023/04/28 14:03:36;;;;;;;1.57;1.30;;;;;;;18.32;86.15;98708.03;7385634;39;20390;31
2023/04/28 14:09:08;;;;;;;1.40;1.20;;;;;;;18.73;85.12;98696.41;7396095;39;20243;31
2023/04/28 14:14:28;;;;;;;2.47;1.13;;;;;;;18.84;83.97;98703.81;7356046;39;20467;31
2023/04/28 14:20:00;;;;;;;1.03;0.90;;;;;;;18.84;84.49;98696.47;7333965;39;20322;31
2023/04/28 14:25:33;;;;;;;2.10;1.10;;;;;;;18.72;83.74;98690.13;7377620;39;20247;31
2023/04/28 14:30:50;;;;;;;1.40;1.00;;;;;;;18.71;84.05;98696.66;7387213;39;20276;31
2023/04/28 14:36:10;;;;;;;1.10;1.00;;;;;;;18.63;84.81;98699.69;7482671;39;20245;31
2023/04/28 14:41:43;;;;;;;1.10;1.00;;;;;;;18.62;84.29;98687.09;7461870;39;20256;31
2023/04/28 14:47:15;;;;;;;2.65;0.90;;;;;;;18.63;82.36;98679.75;7398222;39;20232;31
2023/04/28 14:52:47;;;;;;;1.65;1.10;;;;;;;18.63;84.33;98687.94;7401553;39;20411;31
2023/04/28 14:58:20;;;;;;;1.00;0.90;;;;;;;18.65;84.77;98680.38;7417987;39;20417;31
2023/04/28 15:03:37;;;;;;;0.90;0.90;;;;;;;18.63;83.41;98696.13;7376788;39;20338;31
2023/04/28 15:08:54;;;;;;;0.93;0.90;;;;;;;18.63;83.61;98688.78;7380418;39;20403;31
2023/04/28 15:14:30;;;;;;;2.65;0.80;;;;;;;18.60;83.30;98691.97;7206358;39;20259;31
2023/04/28 15:20:02;;;;;;;1.63;1.30;;;;;;;18.47;83.50;98694.84;7463738;39;21303;31
2023/04/28 15:25:19;;;;;;;2.20;1.50;;;;;;;18.37;83.96;98706.31;7439109;39;20253;31
2023/04/28 15:30:51;;;;;;;2.45;1.15;;;;;;;18.27;84.17;98692.34;7444185;39;20277;31
2023/04/28 15:36:27;;;;;;;3.40;1.90;;;;;;;18.19;85.62;98680.91;7376238;39;20374;31
2023/04/28 15:47:03;;;;;;;6.70;1.57;;;;;;;18.39;86.85;98676.03;7378799;39;20742;31
2023/04/28 15:52:35;;;;;;;3.13;1.57;;;;;;;18.57;87.21;98684.22;7335911;39;20244;31
2023/04/28 15:58:08;;;;;;;1.27;1.03;;;;;;;18.61;85.77;98679.12;7354949;39;21430;31
2023/04/28 16:03:37;;;;;;;0.90;0.80;;;;;;;18.69;84.67;98673.38;7396802;39;20247;31
2023/04/28 16:08:55;;;;;;;1.70;1.00;;;;;;;18.86;83.89;98660.72;7397944;39;20333;31
2023/04/28 16:14:27;;;;;;;2.20;1.00;;;;;;;18.85;83.15;98679.00;7407163;39;20283;31
2023/04/28 16:20:00;;;;;;;1.50;1.30;;;;;;;18.71;83.16;98672.06;7376793;39;20397;31
2023/04/28 16:25:18;;;;;;;1.50;1.27;;;;;;;18.64;84.77;98671.34;7373116;39;20298;31
2023/04/28 16:30:49;;;;;;;2.20;1.10;;;;;;;18.64;84.79;98671.34;7407861;39;20268;31
2023/04/28 16:36:23;;;;;;;1.90;1.10;;;;;;;18.58;85.71;98674.97;7386676;39;20244;31
2023/04/28 16:41:59;;;;;;;2.50;1.00;;;;;;;18.53;86.98;98672.09;7399894;39;20258;31
2023/04/28 16:47:29;;;;;;;1.10;1.00;;;;;;;18.55;86.41;98671.88;7439406;39;20262;31
2023/04/28 16:53:00;;;;;;;1.37;1.20;;;;;;;18.58;85.49;98671.41;7418735;39;20348;31
2023/04/28 16:58:32;;;;;;;1.10;1.00;;;;;;;18.59;86.62;98673.94;7432361;39;20239;31
2023/04/28 17:03:53;;;;;;;1.60;1.20;;;;;;;18.66;85.36;98671.09;7395510;39;21914;31
2023/04/28 17:09:29;;;;;;;1.87;1.03;;;;;;;18.59;86.25;98663.00;7394474;39;20417;31
2023/04/28 17:19:49;;;;;;;2.30;1.40;;;;;;;18.51;87.02;98657.84;7471270;38;21274;31
2023/04/28 17:25:26;;;;;;;3.05;1.30;;;;;;;18.52;86.81;98661.41;7488806;38;21856;31
2023/04/28 17:30:44;;;;;;;3.23;1.23;;;;;;;18.54;85.83;98657.41;7437223;39;20409;31
2023/04/28 17:41:21;;;;;;;1.55;1.20;;;;;;;18.41;84.89;98660.28;7436338;39;20348;31
2023/04/28 17:46:39;;;;;;;1.37;1.27;;;;;;;18.38;84.83;98669.78;7387524;39;20236;31
2023/04/28 17:51:55;;;;;;;1.27;1.10;;;;;;;18.33;84.63;98672.34;7397555;39;20257;31
2023/04/28 17:57:30;;;;;;;1.30;1.20;;;;;;;18.21;84.45;98668.69;7400574;39;20266;31
2023/04/28 18:02:47;;;;;;;1.70;1.17;;;;;;;18.18;84.18;98666.44;7315110;39;20267;31
2023/04/28 18:08:18;;;;;;;2.80;1.10;;;;;;;18.18;83.97;98680.06;7377678;39;20328;31
2023/04/28 18:13:51;;;;;;;6.40;5.80;;;;;;;18.07;84.56;98691.75;7373078;39;20371;31
2023/04/28 18:19:09;;;;;;;2.50;1.75;;;;;;;18.02;84.79;98686.16;7393021;39;20358;31
2023/04/28 18:29:45;;;;;;;4.15;2.65;;;;;;;17.95;84.84;98701.72;7411539;39;20255;31
2023/04/28 18:35:02;;;;;;;6.53;5.83;;;;;;;17.84;85.00;98703.31;7384774;39;20239;31
2023/04/28 18:40:19;;;;;;;5.80;4.20;;;;;;;17.78;85.31;98704.22;7439034;39;20258;31
2023/04/28 18:45:52;;;;;;;5.27;4.07;;;;;;;17.77;84.81;98716.16;7435315;39;20341;31
2023/04/28 18:51:24;;;;;;;4.10;3.30;;;;;;;17.71;85.02;98718.97;7389813;39;20261;31
2023/04/28 18:56:41;;;;;;;4.97;3.90;;;;;;;17.64;85.33;98729.13;7418510;39;20239;31
2023/04/28 19:02:17;;;;;;;3.43;2.50;;;;;;;17.53;85.19;98731.47;7400202;39;20262;31
2023/04/28 19:12:54;;;;;;;2.80;1.60;;;;;;;17.42;85.53;98729.44;7438061;39;20471;31
2023/04/28 19:18:27;;;;;;;2.77;1.40;;;;;;;17.36;85.20;98751.31;7391273;39;20431;31
2023/04/28 19:29:07;;;;;;;2.80;1.90;;;;;;;17.27;85.05;98767.09;7421562;39;21250;31
2023/04/28 19:34:41;;;;;;;3.85;2.30;;;;;;;17.22;85.28;98774.25;7365844;39;20245;31
2023/04/28 19:40:10;;;;;;;4.40;2.80;;;;;;;17.24;84.97;98783.06;7419720;39;20338;31
2023/04/28 19:45:28;;;;;;;2.30;2.10;;;;;;;17.16;85.35;98783.31;7373893;39;21751;31
2023/04/28 19:51:01;;;;;;;4.73;2.40;;;;;;;17.12;84.82;98789.19;7427662;39;20241;31
2023/04/28 19:56:19;;;;;;;3.15;2.70;;;;;;;17.13;84.91;98799.03;7446834;39;20318;31
2023/04/28 20:01:33;;;;;;;3.40;2.10;;;;;;;17.10;85.46;98791.31;7442516;39;20341;31
2023/04/28 20:07:07;;;;;;;3.83;1.90;;;;;;;17.04;85.23;98800.34;7419060;39;20241;31
2023/04/28 20:12:39;;;;;;;2.45;1.40;;;;;;;17.00;83.92;98790.09;7379408;39;20301;31
2023/04/28 20:18:11;;;;;;;2.57;1.50;;;;;;;17.00;84.56;98799.09;7396027;39;20432;31
2023/04/28 20:23:42;;;;;;;4.70;1.60;;;;;;;16.93;83.96;98800.19;7402516;39;20277;31
2023/04/28 20:29:14;;;;;;;2.37;1.83;;;;;;;16.85;84.45;98792.28;7402314;39;20241;31
2023/04/28 20:34:46;;;;;;;2.97;2.00;;;;;;;16.78;84.45;98802.34;7387359;39;20325;31
2023/04/28 20:40:17;;;;;;;3.50;1.50;;;;;;;16.70;84.10;98805.31;7405812;39;20228;31
2023/04/28 20:45:52;;;;;;;2.50;1.47;;;;;;;16.62;84.29;98803.69;7390637;39;20259;31
2023/04/28 20:51:21;;;;;;;2.53;1.40;;;;;;;16.53;83.68;98805.75;7379726;39;20255;31
2023/04/28 20:56:57;;;;;;;1.65;1.40;;;;;;;16.42;83.77;98803.69;7407925;39;21044;31
2023/04/28 21:02:14;;;;;;;2.15;1.50;;;;;;;16.44;84.32;98808.94;7426716;39;20424;31
2023/04/28 21:07:31;;;;;;;2.25;1.40;;;;;;;16.42;82.96;98814.56;7438049;39;21824;31
2023/04/28 21:13:04;;;;;;;1.63;1.40;;;;;;;16.34;82.56;98820.25;7440490;39;20395;31
2023/04/28 21:23:28;;;;;;;1.80;1.40;;;;;;;16.23;83.35;98824.44;7443023;39;20758;31
2023/04/28 21:29:01;;;;;;;4.17;1.63;;;;;;;16.19;83.47;98825.91;7354491;39;20235;31
2023/04/28 21:34:18;;;;;;;1.50;1.30;;;;;;;16.13;83.20;98821.34;7300414;39;20252;31
2023/04/28 21:39:35;;;;;;;2.60;2.10;;;;;;;16.08;83.40;98831.16;7318938;39;20245;31
2023/04/28 21:45:09;;;;;;;5.30;2.30;;;;;;;15.95;82.70;98829.31;7327961;39;20282;31
2023/04/28 21:50:26;;;;;;;6.05;1.60;;;;;;;15.98;83.39;98830.75;7342169;39;20265;31
2023/04/28 21:55:58;;;;;;;1.93;1.67;;;;;;;15.89;83.66;98830.13;7394317;39;20342;31
2023/04/28 22:01:31;;;;;;;3.35;1.80;;;;;;;15.84;83.77;98824.47;7396921;39;20278;31
2023/04/28 22:12:07;;;;;;;3.10;1.90;;;;;;;15.77;83.14;98831.81;7417393;39;21163;31
2023/04/28 22:17:43;;;;;;;4.00;1.70;;;;;;;15.72;82.28;98837.88;7395386;39;20269;31
2023/04/28 22:23:00;;;;;;;3.77;1.93;;;;;;;15.70;83.07;98833.69;7124629;39;20250;31
2023/04/28 22:33:37;;;;;;;3.60;1.80;;;;;;;15.59;82.51;98842.44;7407816;39;20266;31
2023/04/28 22:38:54;;;;;;;2.70;1.70;;;;;;;15.56;83.25;98849.16;7416256;39;20247;31
2023/04/28 22:44:26;;;;;;;2.60;2.10;;;;;;;15.48;82.83;98843.03;7418388;39;20257;31
2023/04/28 22:49:59;;;;;;;3.40;2.10;;;;;;;15.36;82.84;98845.50;7420321;39;20254;31
2023/04/28 22:55:18;;;;;;;2.40;2.00;;;;;;;15.34;82.48;98844.91;7438903;39;20238;31
2023/04/28 23:00:52;;;;;;;2.47;1.97;;;;;;;15.26;83.26;98839.66;7438056;39;20275;31
2023/04/28 23:06:27;;;;;;;2.50;1.80;;;;;;;15.14;83.12;98842.13;7396875;39;20241;31
2023/04/28 23:11:57;;;;;;;7.30;2.13;;;;;;;15.08;82.88;98842.13;7375986;39;20283;31
2023/04/28 23:17:29;;;;;;;3.17;1.90;;;;;;;15.00;83.52;98837.72;7379378;39;20310;31
2023/04/28 23:23:03;;;;;;;2.75;1.90;;;;;;;14.89;84.04;98843.72;7375744;39;20374;31
2023/04/28 23:28:20;;;;;;;2.60;2.03;;;;;;;14.90;84.16;98842.69;7378193;39;20258;31
2023/04/28 23:33:55;;;;;;;3.60;2.10;;;;;;;14.93;83.53;98853.13;7424683;39;20325;31
2023/04/28 23:39:28;;;;;;;4.90;2.03;;;;;;;14.90;84.03;98845.38;7420626;39;20261;31
2023/04/28 23:45:01;;;;;;;4.57;2.03;;;;;;;14.86;83.91;98855.81;7348769;39;20251;31
2023/04/28 23:50:33;;;;;;;2.80;2.17;;;;;;;14.78;84.27;98849.72;7442775;39;20264;31
2023/04/28 23:56:06;;;;;;;4.33;1.90;;;;;;;14.77;84.04;98848.03;7421511;39;20250;31
